createdAt,value
2018-11-10T00:01:49.251Z,70.20
2018-11-10T00:04:16.655Z,78.73
2018-11-10T00:06:46.784Z,70.07
2018-11-10T00:09:14.198Z,76.00
2018-11-10T00:11:41.646Z,60.60
2018-11-10T00:14:09.099Z,60.53
2018-11-10T00:16:36.683Z,61.13
2018-11-10T00:19:04.167Z,60.30
2018-11-10T00:21:31.876Z,58.67
2018-11-10T00:23:59.337Z,61.67
2018-11-10T00:26:26.768Z,65.20
2018-11-10T00:28:54.192Z,62.47
2018-11-10T00:31:21.644Z,66.00
2018-11-10T00:33:49.081Z,67.00
2018-11-10T00:36:16.555Z,64.07
2018-11-10T00:38:43.989Z,65.10
2018-11-10T00:41:11.482Z,59.90
2018-11-10T00:43:38.991Z,55.40
2018-11-10T00:46:06.473Z,63.33
2018-11-10T00:48:33.926Z,68.37
2018-11-10T00:51:01.403Z,61.27
2018-11-10T00:53:28.776Z,71.90
2018-11-10T00:55:56.258Z,59.17
2018-11-10T00:58:23.707Z,58.87
2018-11-10T01:00:53.391Z,58.27
2018-11-10T01:03:20.923Z,51.33
2018-11-10T01:05:48.321Z,48.47
2018-11-10T01:08:15.702Z,49.03
2018-11-10T01:10:43.118Z,52.23
2018-11-10T01:13:10.472Z,62.87
2018-11-10T01:15:37.900Z,45.50
2018-11-10T01:18:05.443Z,50.07
2018-11-10T01:20:35.875Z,44.87
2018-11-10T01:23:03.663Z,46.60
2018-11-10T01:25:31.152Z,47.93
2018-11-10T01:27:58.657Z,44.73
2018-11-10T01:30:26.198Z,47.37
2018-11-10T01:32:53.660Z,48.23
2018-11-10T01:35:21.077Z,48.13
2018-11-10T01:37:48.502Z,44.80
2018-11-10T01:40:15.906Z,48.37
2018-11-10T01:42:43.721Z,42.27
2018-11-10T01:45:14.941Z,48.97
2018-11-10T01:47:42.968Z,44.17
2018-11-10T01:50:11.045Z,50.30
2018-11-10T01:52:38.800Z,53.10
2018-11-10T01:55:06.738Z,56.37
2018-11-10T01:57:34.207Z,54.37
2018-11-10T02:00:01.624Z,48.13
2018-11-10T02:02:29.054Z,53.37
2018-11-10T02:04:56.506Z,45.17
2018-11-10T02:07:23.916Z,53.80
2018-11-10T02:09:51.346Z,45.37
2018-11-10T02:12:18.784Z,43.20
2018-11-10T02:14:46.213Z,48.13
2018-11-10T02:17:13.676Z,47.07
2018-11-10T02:19:41.122Z,50.57
2018-11-10T02:22:08.549Z,44.63
2018-11-10T02:24:35.987Z,39.47
2018-11-10T02:27:06.821Z,39.53
2018-11-10T02:29:34.328Z,43.53
2018-11-10T02:32:01.749Z,39.50
2018-11-10T02:34:29.182Z,40.77
2018-11-10T02:36:56.563Z,54.67
2018-11-10T02:39:24.014Z,47.08
2018-11-10T02:41:51.409Z,45.88
2018-11-10T02:44:18.871Z,44.03
2018-11-10T02:46:46.275Z,43.57
2018-11-10T02:49:13.701Z,39.10
2018-11-10T02:51:41.169Z,44.97
2018-11-10T02:54:08.594Z,44.67
2018-11-10T02:56:35.997Z,49.57
2018-11-10T02:59:03.423Z,40.67
2018-11-10T03:01:30.822Z,39.17
2018-11-10T03:03:58.247Z,44.50
2018-11-10T03:06:25.664Z,51.87
2018-11-10T03:08:53.086Z,48.80
2018-11-10T03:11:20.547Z,49.57
2018-11-10T03:13:47.957Z,40.37
2018-11-10T03:16:15.450Z,48.20
2018-11-10T03:18:42.835Z,45.17
2018-11-10T03:21:10.263Z,43.90
2018-11-10T03:23:37.687Z,47.43
2018-11-10T03:26:05.097Z,48.67
2018-11-10T03:28:32.499Z,45.17
2018-11-10T03:30:59.949Z,46.50
2018-11-10T03:33:27.359Z,49.70
2018-11-10T03:35:54.794Z,44.70
2018-11-10T03:38:22.228Z,43.13
2018-11-10T03:40:49.697Z,43.97
2018-11-10T03:43:17.109Z,51.63
2018-11-10T03:45:44.501Z,47.13
2018-11-10T03:48:11.953Z,49.47
2018-11-10T03:50:39.379Z,88.60
2018-11-10T03:53:06.822Z,68.50
2018-11-10T03:55:34.207Z,45.20
2018-11-10T03:58:01.633Z,47.83
2018-11-10T04:00:29.052Z,50.83
2018-11-10T04:02:56.563Z,49.57
2018-11-10T04:05:23.950Z,45.73
2018-11-10T04:07:51.362Z,53.50
2018-11-10T04:10:18.748Z,46.97
2018-11-10T04:12:46.185Z,53.17
2018-11-10T04:15:13.624Z,45.97
2018-11-10T04:17:41.038Z,56.20
2018-11-10T04:20:09.343Z,46.07
2018-11-10T04:22:37.548Z,53.27
2018-11-10T04:25:08.389Z,49.80
2018-11-10T04:27:35.795Z,51.63
2018-11-10T04:30:04.514Z,50.33
2018-11-10T04:32:32.326Z,48.37
2018-11-10T04:34:59.778Z,49.47
2018-11-10T04:37:27.167Z,44.00
2018-11-10T04:39:54.828Z,55.20
2018-11-10T04:42:22.205Z,50.27
2018-11-10T04:44:49.614Z,47.40
2018-11-10T04:47:16.994Z,46.10
2018-11-10T04:49:44.417Z,44.23
2018-11-10T04:52:11.803Z,43.40
2018-11-10T04:54:39.269Z,47.33
2018-11-10T04:57:06.694Z,47.07
2018-11-10T04:59:34.079Z,46.50
2018-11-10T05:02:01.481Z,49.47
2018-11-10T05:04:28.864Z,47.63
2018-11-10T05:06:56.282Z,45.77
2018-11-10T05:09:23.682Z,50.73
2018-11-10T05:11:51.128Z,45.47
2018-11-10T05:14:18.582Z,47.07
2018-11-10T05:16:45.999Z,48.43
2018-11-10T05:19:13.428Z,44.63
2018-11-10T05:21:40.858Z,46.27
2018-11-10T05:24:08.282Z,44.43
2018-11-10T05:26:35.722Z,47.10
2018-11-10T05:29:03.964Z,45.13
2018-11-10T05:31:31.415Z,48.53
2018-11-10T05:33:58.828Z,45.77
2018-11-10T05:36:26.239Z,49.80
2018-11-10T05:38:53.638Z,43.10
2018-11-10T05:41:21.096Z,44.50
2018-11-10T05:43:48.514Z,45.47
2018-11-10T05:46:15.958Z,45.40
2018-11-10T05:48:43.368Z,43.00
2018-11-10T05:51:11.642Z,46.40
2018-11-10T05:53:39.158Z,46.20
2018-11-10T05:56:07.390Z,44.80
2018-11-10T05:58:34.857Z,44.00
2018-11-10T06:01:02.319Z,42.80
2018-11-10T06:03:29.728Z,46.20
2018-11-10T06:05:57.117Z,44.13
2018-11-10T06:08:24.595Z,48.63
2018-11-10T06:10:52.021Z,46.00
2018-11-10T06:13:19.459Z,44.63
2018-11-10T06:15:46.884Z,40.90
2018-11-10T06:18:14.319Z,42.83
2018-11-10T06:20:41.738Z,51.20
2018-11-10T06:23:09.205Z,49.63
2018-11-10T06:25:36.620Z,49.87
2018-11-10T06:28:04.032Z,50.13
2018-11-10T06:30:31.494Z,57.40
2018-11-10T06:32:58.903Z,46.73
2018-11-10T06:35:26.389Z,42.50
2018-11-10T06:37:53.828Z,43.57
2018-11-10T06:40:21.277Z,42.77
2018-11-10T06:42:48.668Z,41.13
2018-11-10T06:45:16.095Z,50.77
2018-11-10T06:47:43.528Z,42.87
2018-11-10T06:50:11.449Z,43.97
2018-11-10T06:52:38.952Z,42.23
2018-11-10T06:55:07.147Z,41.30
2018-11-10T06:57:34.551Z,43.87
2018-11-10T07:00:02.474Z,41.77
2018-11-10T07:02:29.876Z,40.57
2018-11-10T07:04:57.248Z,38.43
2018-11-10T07:07:24.679Z,34.53
2018-11-10T07:09:52.059Z,37.20
2018-11-10T07:12:19.569Z,36.17
2018-11-10T07:14:46.977Z,35.53
2018-11-10T07:17:14.423Z,33.47
2018-11-10T07:19:41.850Z,37.40
2018-11-10T07:22:09.301Z,35.07
2018-11-10T07:24:36.714Z,32.57
2018-11-10T07:27:04.396Z,32.47
2018-11-10T07:29:31.836Z,27.47
2018-11-10T07:31:59.329Z,26.00
2018-11-10T07:34:26.759Z,30.40
2018-11-10T07:36:54.166Z,31.53
2018-11-10T07:39:21.687Z,27.00
2018-11-10T07:41:49.118Z,32.30
2018-11-10T07:44:16.592Z,30.80
2018-11-10T07:46:44.011Z,31.70
2018-11-10T07:49:11.454Z,31.23
2018-11-10T07:51:38.842Z,28.03
2018-11-10T07:54:06.331Z,29.23
2018-11-10T07:56:33.719Z,28.57
2018-11-10T07:59:01.165Z,25.50
2018-11-10T08:01:28.579Z,24.73
2018-11-10T08:03:56.020Z,24.80
2018-11-10T08:06:23.414Z,25.50
2018-11-10T08:08:50.839Z,26.17
2018-11-10T08:11:18.278Z,23.43
2018-11-10T08:13:45.777Z,23.90
2018-11-10T08:16:13.193Z,27.83
2018-11-10T08:18:40.708Z,40.07
2018-11-10T08:21:08.165Z,41.60
2018-11-10T08:23:35.624Z,42.97
2018-11-10T08:26:03.064Z,49.40
2018-11-10T08:28:30.501Z,26.47
2018-11-10T08:30:58.051Z,28.30
2018-11-10T08:33:25.430Z,28.23
2018-11-10T08:35:52.904Z,27.37
2018-11-10T08:38:20.424Z,28.50
2018-11-10T08:40:47.886Z,31.33
2018-11-10T08:43:15.357Z,28.93
2018-11-10T08:45:42.957Z,31.40
2018-11-10T08:48:10.407Z,26.77
2018-11-10T08:50:37.861Z,24.27
2018-11-10T08:53:05.292Z,23.13
2018-11-10T08:55:32.751Z,26.63
2018-11-10T08:58:00.205Z,22.63
2018-11-10T09:00:27.685Z,21.17
2018-11-10T09:02:55.106Z,21.57
2018-11-10T09:05:22.609Z,20.23
2018-11-10T09:07:50.049Z,23.33
2018-11-10T09:10:17.501Z,20.07
2018-11-10T09:12:44.934Z,19.73
2018-11-10T09:15:13.814Z,22.63
2018-11-10T09:17:41.647Z,20.50
2018-11-10T09:20:10.740Z,21.37
2018-11-10T09:22:38.169Z,19.57
2018-11-10T09:25:07.581Z,18.30
2018-11-10T09:27:34.995Z,19.67
2018-11-10T09:30:02.519Z,18.10
2018-11-10T09:32:29.925Z,20.43
2018-11-10T09:34:57.346Z,16.10
2018-11-10T09:37:24.785Z,16.93
2018-11-10T09:39:52.234Z,17.33
2018-11-10T09:42:19.816Z,14.90
2018-11-10T09:44:47.181Z,16.37
2018-11-10T09:47:14.649Z,16.13
2018-11-10T09:49:42.102Z,15.60
2018-11-10T09:52:09.644Z,14.87
2018-11-10T09:54:37.124Z,15.43
2018-11-10T09:57:05.226Z,14.07
2018-11-10T09:59:55.512Z,14.83
2018-11-10T10:02:45.984Z,14.50
2018-11-10T10:05:35.482Z,14.77
2018-11-10T10:08:22.800Z,14.03
2018-11-10T10:11:10.415Z,14.20
2018-11-10T10:14:02.392Z,13.33
2018-11-10T10:16:54.290Z,14.47
2018-11-10T10:19:46.977Z,13.77
2018-11-10T10:22:15.226Z,17.03
2018-11-10T10:24:42.655Z,13.20
2018-11-10T10:27:10.044Z,23.80
2018-11-10T10:29:37.503Z,16.60
2018-11-10T10:32:05.000Z,15.53
2018-11-10T10:34:32.551Z,14.03
2018-11-10T10:36:59.915Z,16.03
2018-11-10T10:39:27.401Z,21.53
2018-11-10T10:41:54.776Z,12.80
2018-11-10T10:44:22.239Z,11.50
2018-11-10T10:46:49.756Z,25.83
2018-11-10T10:49:17.277Z,12.37
2018-11-10T10:51:44.695Z,11.43
2018-11-10T10:54:12.184Z,10.47
2018-11-10T10:56:39.748Z,10.80
2018-11-10T10:59:07.279Z,12.73
2018-11-10T11:01:40.414Z,10.80
2018-11-10T11:04:13.360Z,9.73
2018-11-10T11:06:40.822Z,9.73
2018-11-10T11:09:08.516Z,12.23
2018-11-10T11:11:35.914Z,9.60
2018-11-10T11:14:03.367Z,9.33
2018-11-10T11:16:30.806Z,7.70
2018-11-10T11:18:58.266Z,8.20
2018-11-10T11:21:25.791Z,8.43
2018-11-10T11:23:53.265Z,9.77
2018-11-10T11:26:20.742Z,9.57
2018-11-10T11:28:48.306Z,7.63
2018-11-10T11:31:15.776Z,7.67
2018-11-10T11:33:43.289Z,8.07
2018-11-10T11:36:10.637Z,8.53
2018-11-10T11:38:38.144Z,7.30
2018-11-10T11:41:05.659Z,7.07
2018-11-10T11:43:33.135Z,7.53
2018-11-10T11:46:00.562Z,7.57
2018-11-10T11:48:27.980Z,8.37
2018-11-10T11:50:55.431Z,8.40
2018-11-10T11:53:22.936Z,8.60
2018-11-10T11:55:50.349Z,10.17
2018-11-10T11:58:17.847Z,8.07
2018-11-10T12:00:45.262Z,9.33
2018-11-10T12:03:12.800Z,8.37
2018-11-10T12:05:40.241Z,10.23
2018-11-10T12:08:07.735Z,7.70
2018-11-10T12:10:35.165Z,8.33
2018-11-10T12:13:02.622Z,8.67
2018-11-10T12:15:30.125Z,8.33
2018-11-10T12:17:57.548Z,9.20
2018-11-10T12:20:24.975Z,9.07
2018-11-10T12:22:52.414Z,10.07
2018-11-10T12:25:19.947Z,11.80
2018-11-10T12:27:47.353Z,11.07
2018-11-10T12:30:14.777Z,9.10
2018-11-10T12:32:42.173Z,10.83
2018-11-10T12:35:11.020Z,11.63
2018-11-10T12:37:38.437Z,9.63
2018-11-10T12:40:07.675Z,9.60
2018-11-10T12:42:35.331Z,11.50
2018-11-10T12:45:02.815Z,10.30
2018-11-10T12:47:30.297Z,11.67
2018-11-10T12:49:57.912Z,11.23
2018-11-10T12:52:25.393Z,12.63
2018-11-10T12:54:52.865Z,13.03
2018-11-10T12:57:20.368Z,11.33
2018-11-10T12:59:47.805Z,10.63
2018-11-10T13:02:15.260Z,11.27
2018-11-10T13:04:42.655Z,13.10
2018-11-10T13:07:10.160Z,11.67
2018-11-10T13:09:37.579Z,15.20
2018-11-10T13:12:05.285Z,12.33
2018-11-10T13:14:32.715Z,17.93
2018-11-10T13:17:00.189Z,15.53
2018-11-10T13:19:27.652Z,14.27
2018-11-10T13:21:55.127Z,16.47
2018-11-10T13:24:22.527Z,16.97
2018-11-10T13:26:49.990Z,17.47
2018-11-10T13:29:17.445Z,14.17
2018-11-10T13:31:44.940Z,14.17
2018-11-10T13:34:12.349Z,18.17
2018-11-10T13:36:39.773Z,17.07
2018-11-10T13:39:08.496Z,16.23
2018-11-10T13:41:35.951Z,17.03
2018-11-10T13:44:03.500Z,19.17
2018-11-10T13:46:30.855Z,17.67
2018-11-10T13:48:58.310Z,17.40
2018-11-10T13:51:26.055Z,18.33
2018-11-10T13:53:53.331Z,20.03
2018-11-10T13:56:20.761Z,19.27
2018-11-10T13:58:48.221Z,17.90
2018-11-10T14:01:15.682Z,16.37
2018-11-10T14:03:43.108Z,18.93
2018-11-10T14:06:10.552Z,18.20
2018-11-10T14:08:38.008Z,16.50
2018-11-10T14:11:05.535Z,16.73
2018-11-10T14:13:32.976Z,21.77
2018-11-10T14:16:00.476Z,21.30
2018-11-10T14:18:27.915Z,21.33
2018-11-10T14:20:55.366Z,24.37
2018-11-10T14:23:22.761Z,23.70
2018-11-10T14:25:50.224Z,24.83
2018-11-10T14:28:17.679Z,31.47
2018-11-10T14:30:45.217Z,25.90
2018-11-10T14:33:12.682Z,20.33
2018-11-10T14:35:40.093Z,21.03
2018-11-10T14:38:07.550Z,23.70
2018-11-10T14:40:34.997Z,18.43
2018-11-10T14:43:02.457Z,21.17
2018-11-10T14:45:29.901Z,20.13
2018-11-10T14:47:57.271Z,21.77
2018-11-10T14:50:24.722Z,22.60
2018-11-10T14:52:52.418Z,22.37
2018-11-10T14:55:19.602Z,24.00
2018-11-10T15:00:27.836Z,22.43
2018-11-10T15:02:55.306Z,23.27
2018-11-10T15:05:22.812Z,22.10
2018-11-10T15:07:50.253Z,24.43
2018-11-10T15:10:18.064Z,25.90
2018-11-10T15:12:45.864Z,24.77
2018-11-10T15:15:14.347Z,27.17
2018-11-10T15:17:42.041Z,43.70
2018-11-10T15:20:10.888Z,27.73
2018-11-10T15:22:38.380Z,30.33
2018-11-10T15:25:07.689Z,44.07
2018-11-10T15:27:35.077Z,47.90
2018-11-10T15:30:02.522Z,36.83
2018-11-10T15:32:29.983Z,31.27
2018-11-10T15:35:03.047Z,32.73
2018-11-10T15:37:46.479Z,35.50
2018-11-10T15:40:33.371Z,39.80
2018-11-10T15:43:20.771Z,27.67
2018-11-10T15:46:07.605Z,28.17
2018-11-10T15:48:56.076Z,27.60
2018-11-10T15:51:44.356Z,31.47
2018-11-10T15:54:32.732Z,29.53
2018-11-10T15:57:23.452Z,30.70
2018-11-10T16:00:11.487Z,29.87
2018-11-10T16:02:59.752Z,27.53
2018-11-10T16:05:49.657Z,30.47
2018-11-10T16:08:38.269Z,29.53
2018-11-10T16:11:27.136Z,30.20
2018-11-10T16:14:16.788Z,30.43
2018-11-10T16:17:07.717Z,31.37
2018-11-10T16:19:55.811Z,28.93
2018-11-10T16:22:46.352Z,26.80
2018-11-10T16:25:35.618Z,34.30
2018-11-10T16:28:04.147Z,38.87
2018-11-10T16:30:31.648Z,34.77
2018-11-10T16:32:59.087Z,36.50
2018-11-10T16:35:26.552Z,78.13
2018-11-10T16:37:54.006Z,62.50
2018-11-10T16:40:21.441Z,207.37
2018-11-10T16:42:49.526Z,159.17
2018-11-10T16:45:18.089Z,136.37
2018-11-10T16:47:45.630Z,55.73
2018-11-10T16:50:13.109Z,52.03
2018-11-10T16:52:41.512Z,44.43
2018-11-10T16:55:09.854Z,33.73
2018-11-10T16:57:38.362Z,29.43
2018-11-10T17:00:09.026Z,26.83
2018-11-10T17:02:36.513Z,28.97
2018-11-10T17:05:04.969Z,28.40
2018-11-10T17:07:32.453Z,29.73
2018-11-10T17:10:00.502Z,27.73
2018-11-10T17:12:28.231Z,34.00
2018-11-10T17:14:55.680Z,41.50
2018-11-10T17:17:23.194Z,33.33
2018-11-10T17:19:50.897Z,31.07
2018-11-10T17:22:18.525Z,32.07
2018-11-10T17:24:45.879Z,31.43
2018-11-10T17:27:13.423Z,32.27
2018-11-10T17:29:40.873Z,31.77
2018-11-10T17:32:08.352Z,30.87
2018-11-10T17:34:36.036Z,32.80
2018-11-10T17:37:03.740Z,31.47
2018-11-10T17:39:31.747Z,31.53
2018-11-10T17:41:59.308Z,32.83
2018-11-10T17:44:27.083Z,30.00
2018-11-10T17:46:54.727Z,30.87
2018-11-10T17:49:22.196Z,32.40
2018-11-10T17:51:49.654Z,49.70
2018-11-10T17:54:17.137Z,42.37
2018-11-10T17:56:44.568Z,46.70
2018-11-10T17:59:12.102Z,31.17
2018-11-10T18:01:39.568Z,32.27
2018-11-10T18:04:07.040Z,35.57
2018-11-10T18:06:34.443Z,37.80
2018-11-10T18:09:02.079Z,34.13
2018-11-10T18:11:29.749Z,34.80
2018-11-10T18:13:57.215Z,31.40
2018-11-10T18:16:24.709Z,31.43
2018-11-10T18:18:52.174Z,32.70
2018-11-10T18:21:19.687Z,33.57
2018-11-10T18:23:47.464Z,28.13
2018-11-10T18:26:15.720Z,29.97
2018-11-10T18:28:43.733Z,35.37
2018-11-10T18:31:11.234Z,33.80
2018-11-10T18:33:38.653Z,35.23
2018-11-10T18:36:06.323Z,35.20
2018-11-10T18:38:33.853Z,31.47
2018-11-10T18:41:01.542Z,31.60
2018-11-10T18:43:29.230Z,31.03
2018-11-10T18:45:57.079Z,33.33
2018-11-10T18:48:24.730Z,30.80
2018-11-10T18:50:52.205Z,31.73
2018-11-10T18:53:19.826Z,33.43
2018-11-10T18:55:49.459Z,35.70
2018-11-10T18:58:17.641Z,34.20
2018-11-10T19:00:48.909Z,50.90
2018-11-10T19:03:16.549Z,38.30
2018-11-10T19:05:44.680Z,40.67
2018-11-10T19:08:13.145Z,47.30
2018-11-10T19:10:41.258Z,48.43
2018-11-10T19:13:08.804Z,44.63
2018-11-10T19:15:36.190Z,59.70
2018-11-10T19:18:03.708Z,59.93
2018-11-10T19:20:31.098Z,40.13
2018-11-10T19:22:59.271Z,35.83
2018-11-10T19:25:27.089Z,31.07
2018-11-10T19:27:54.549Z,31.67
2018-11-10T19:30:23.063Z,33.83
2018-11-10T19:32:50.983Z,30.03
2018-11-10T19:35:18.912Z,43.13
2018-11-10T19:37:46.992Z,60.83
2018-11-10T19:40:14.464Z,121.37
2018-11-10T19:42:43.559Z,139.17
2018-11-10T19:45:11.649Z,47.67
2018-11-10T19:47:40.301Z,49.33
2018-11-10T19:50:08.533Z,50.43
2018-11-10T19:52:36.027Z,39.53
2018-11-10T19:55:04.098Z,32.20
2018-11-10T19:57:31.808Z,35.40
2018-11-10T19:59:59.250Z,34.17
2018-11-10T20:02:27.059Z,30.03
2018-11-10T20:04:55.174Z,30.07
2018-11-10T20:07:23.597Z,30.80
2018-11-10T20:09:51.310Z,34.07
2018-11-10T20:12:19.103Z,32.20
2018-11-10T20:14:47.114Z,35.03
2018-11-10T20:17:15.099Z,35.97
2018-11-10T20:19:43.006Z,35.27
2018-11-10T20:22:11.360Z,38.87
2018-11-10T20:24:39.060Z,40.37
2018-11-10T20:27:07.230Z,40.43
2018-11-10T20:29:35.083Z,41.27
2018-11-10T20:32:02.854Z,33.77
2018-11-10T20:34:30.996Z,35.47
2018-11-10T20:36:58.455Z,39.40
2018-11-10T20:39:25.923Z,38.53
2018-11-10T20:41:53.370Z,36.80
2018-11-10T20:44:20.867Z,36.23
2018-11-10T20:46:48.803Z,37.80
2018-11-10T20:49:16.298Z,34.30
2018-11-10T20:51:43.937Z,31.57
2018-11-10T20:54:11.665Z,42.17
2018-11-10T20:56:39.684Z,33.03
2018-11-10T20:59:07.974Z,33.33
2018-11-10T21:01:35.713Z,31.63
2018-11-10T21:04:03.562Z,31.73
2018-11-10T21:06:31.331Z,34.53
2018-11-10T21:08:58.827Z,34.63
2018-11-10T21:11:26.284Z,36.53
2018-11-10T21:13:54.124Z,35.33
2018-11-10T21:16:21.650Z,36.00
2018-11-10T21:18:50.346Z,37.27
2018-11-10T21:21:18.014Z,34.53
2018-11-10T21:23:45.757Z,37.80
2018-11-10T21:26:13.400Z,38.37
2018-11-10T21:28:42.531Z,37.67
2018-11-10T21:31:10.269Z,35.50
2018-11-10T21:33:38.228Z,35.57
2018-11-10T21:36:06.358Z,32.40
2018-11-10T21:38:34.109Z,34.90
2018-11-10T21:41:01.885Z,35.67
2018-11-10T21:43:33.257Z,33.87
2018-11-10T21:46:00.878Z,35.43
2018-11-10T21:48:28.335Z,31.93
2018-11-10T21:50:55.759Z,36.10
2018-11-10T21:53:23.217Z,36.13
2018-11-10T21:55:50.644Z,33.27
2018-11-10T21:58:18.849Z,32.20
2018-11-10T22:00:46.576Z,34.13
2018-11-10T22:03:14.410Z,36.63
2018-11-10T22:05:42.465Z,36.60
2018-11-10T22:08:10.604Z,36.20
2018-11-10T22:10:38.577Z,35.23
2018-11-10T22:13:06.700Z,34.20
2018-11-10T22:15:35.079Z,31.90
2018-11-10T22:18:03.006Z,38.30
2018-11-10T22:20:30.866Z,46.50
2018-11-10T22:22:58.989Z,41.23
2018-11-10T22:25:26.440Z,37.53
2018-11-10T22:27:54.334Z,39.77
2018-11-10T22:30:22.996Z,33.77
2018-11-10T22:32:50.945Z,34.17
2018-11-10T22:35:18.833Z,36.80
2018-11-10T22:37:47.411Z,37.93
2018-11-10T22:40:19.680Z,41.25
2018-11-10T22:42:47.620Z,37.57
2018-11-10T22:45:16.774Z,36.73
2018-11-10T22:47:44.283Z,37.33
2018-11-10T22:50:14.172Z,37.60
2018-11-10T22:52:42.541Z,39.57
2018-11-10T22:55:10.891Z,35.63
2018-11-10T22:57:39.231Z,35.83
2018-11-10T23:00:17.226Z,37.03
2018-11-10T23:02:47.319Z,35.83
2018-11-10T23:05:16.079Z,39.47
2018-11-10T23:07:43.733Z,36.20
2018-11-10T23:10:12.432Z,35.00
2018-11-10T23:12:39.921Z,37.83
2018-11-10T23:15:07.864Z,34.83
2018-11-10T23:17:36.352Z,37.10
2018-11-10T23:20:04.367Z,38.43
2018-11-10T23:22:31.830Z,35.20
2018-11-10T23:24:59.289Z,36.33
2018-11-10T23:27:26.725Z,33.93
2018-11-10T23:29:54.195Z,36.40
2018-11-10T23:32:21.700Z,36.40
2018-11-10T23:34:49.131Z,35.37
2018-11-10T23:37:16.620Z,32.20
2018-11-10T23:39:44.124Z,36.97
2018-11-10T23:42:11.529Z,34.93
2018-11-10T23:44:38.940Z,36.30
2018-11-10T23:47:06.339Z,37.70
2018-11-10T23:49:33.981Z,36.03
2018-11-10T23:52:01.430Z,38.30
2018-11-10T23:54:28.841Z,35.37
2018-11-10T23:56:56.247Z,36.13
2018-11-10T23:59:23.696Z,34.57
